createdAt,value
2023-11-10T00:03:21.822Z,3.13
2023-11-10T00:07:27.483Z,2.70
2023-11-10T00:11:32.966Z,2.57
2023-11-10T00:15:38.477Z,2.43
2023-11-10T00:19:44.637Z,2.70
2023-11-10T00:23:51.025Z,1.90
2023-11-10T00:27:56.590Z,2.30
2023-11-10T00:32:02.157Z,2.70
2023-11-10T00:36:08.358Z,2.60
2023-11-10T00:40:13.951Z,2.40
2023-11-10T00:44:19.481Z,2.10
2023-11-10T00:48:25.059Z,1.73
2023-11-10T00:52:30.593Z,1.70
2023-11-10T00:56:36.164Z,2.20
2023-11-10T01:00:41.732Z,1.90
2023-11-10T01:04:47.304Z,2.17
2023-11-10T01:08:52.805Z,1.97
2023-11-10T01:12:58.427Z,1.80
2023-11-10T01:17:04.168Z,1.67
2023-11-10T01:21:10.298Z,2.10
2023-11-10T01:25:16.100Z,1.83
2023-11-10T01:29:21.671Z,1.87
2023-11-10T01:33:27.273Z,1.80
2023-11-10T01:37:32.836Z,2.07
2023-11-10T01:41:41.592Z,1.60
2023-11-10T01:45:47.911Z,2.00
2023-11-10T01:49:54.440Z,1.47
2023-11-10T01:54:00.713Z,1.33
2023-11-10T01:58:07.959Z,1.70
2023-11-10T02:02:13.525Z,1.47
2023-11-10T02:06:19.201Z,1.50
2023-11-10T02:10:25.402Z,1.23
2023-11-10T02:14:34.052Z,1.00
2023-11-10T02:18:39.671Z,1.23
2023-11-10T02:22:46.582Z,1.10
2023-11-10T02:26:52.069Z,0.90
2023-11-10T02:30:57.652Z,1.13
2023-11-10T02:35:05.276Z,1.20
2023-11-10T02:39:11.985Z,0.97
2023-11-10T02:43:18.489Z,0.80
2023-11-10T02:47:24.249Z,0.70
2023-11-10T02:51:29.925Z,0.70
2023-11-10T02:55:35.545Z,0.80
2023-11-10T02:59:41.263Z,0.70
2023-11-10T03:03:46.897Z,0.77
2023-11-10T03:07:52.820Z,0.80
2023-11-10T03:11:58.347Z,0.80
2023-11-10T03:16:04.784Z,0.93
2023-11-10T03:20:11.210Z,0.90
2023-11-10T03:24:16.848Z,0.90
2023-11-10T03:28:24.429Z,1.27
2023-11-10T03:32:32.511Z,1.00
2023-11-10T03:36:38.019Z,1.30
2023-11-10T03:40:43.612Z,1.10
2023-11-10T03:44:49.171Z,1.30
2023-11-10T03:48:54.750Z,1.30
2023-11-10T03:53:01.722Z,1.20
2023-11-10T03:57:07.269Z,1.40
2023-11-10T04:01:14.645Z,1.80
2023-11-10T04:05:20.493Z,1.43
2023-11-10T04:09:26.049Z,1.70
2023-11-10T04:13:31.588Z,1.47
2023-11-10T04:17:37.136Z,1.87
2023-11-10T04:21:42.705Z,1.30
2023-11-10T04:25:48.900Z,1.80
2023-11-10T04:29:54.515Z,1.50
2023-11-10T04:34:00.711Z,1.83
2023-11-10T04:38:06.286Z,1.80
2023-11-10T04:42:12.050Z,1.77
2023-11-10T04:46:17.731Z,2.20
2023-11-10T04:50:23.403Z,2.10
2023-11-10T04:54:28.934Z,2.10
2023-11-10T04:58:36.050Z,2.13
2023-11-10T05:02:45.950Z,2.33
2023-11-10T05:06:51.737Z,2.47
2023-11-10T05:10:57.212Z,2.53
2023-11-10T05:15:06.854Z,2.53
2023-11-10T05:19:12.486Z,2.70
2023-11-10T05:23:18.022Z,2.40
2023-11-10T05:27:23.564Z,2.50
2023-11-10T05:31:29.264Z,2.80
2023-11-10T05:35:35.201Z,2.50
2023-11-10T05:39:40.763Z,3.00
2023-11-10T05:43:47.840Z,2.90
2023-11-10T05:47:53.439Z,2.33
2023-11-10T05:51:59.479Z,2.80
2023-11-10T05:56:06.891Z,3.60
2023-11-10T06:00:13.031Z,2.93
2023-11-10T06:04:25.992Z,2.60
2023-11-10T06:08:37.938Z,2.60
2023-11-10T06:12:43.521Z,3.20
2023-11-10T06:16:49.076Z,2.70
2023-11-10T06:20:56.001Z,3.70
2023-11-10T06:25:01.686Z,2.67
2023-11-10T06:29:07.226Z,2.77
2023-11-10T06:33:12.845Z,2.57
2023-11-10T06:37:18.523Z,2.80
2023-11-10T06:41:24.033Z,3.63
2023-11-10T06:45:29.686Z,2.13
2023-11-10T06:49:35.682Z,2.97
2023-11-10T06:53:41.148Z,2.53
2023-11-10T06:57:47.677Z,2.47
2023-11-10T07:01:53.447Z,2.50
2023-11-10T07:05:59.178Z,2.27
2023-11-10T07:10:06.123Z,2.30
2023-11-10T07:14:11.775Z,2.33
2023-11-10T07:18:19.148Z,2.30
2023-11-10T07:22:24.910Z,1.93
2023-11-10T07:26:30.403Z,2.30
2023-11-10T07:30:36.932Z,2.17
2023-11-10T07:34:44.444Z,2.13
2023-11-10T07:38:50.459Z,2.17
2023-11-10T07:42:56.195Z,1.80
2023-11-10T07:47:02.157Z,1.83
2023-11-10T07:51:07.660Z,2.07
2023-11-10T07:55:13.296Z,1.83
2023-11-10T07:59:18.845Z,2.10
2023-11-10T08:03:27.416Z,1.50
2023-11-10T08:07:33.122Z,1.70
2023-11-10T08:11:46.132Z,1.80
2023-11-10T08:15:58.293Z,1.73
2023-11-10T08:20:04.536Z,1.40
2023-11-10T08:24:10.604Z,1.73
2023-11-10T08:28:16.213Z,1.53
2023-11-10T08:32:21.789Z,1.57
2023-11-10T08:36:27.332Z,1.37
2023-11-10T08:40:35.606Z,1.30
2023-11-10T08:44:44.076Z,1.30
2023-11-10T08:48:49.682Z,1.47
2023-11-10T08:52:55.451Z,1.50
2023-11-10T08:57:01.411Z,1.40
2023-11-10T09:01:08.873Z,1.33
2023-11-10T09:05:15.652Z,1.10
2023-11-10T09:09:22.901Z,1.30
2023-11-10T09:13:28.690Z,1.40
2023-11-10T09:17:34.455Z,1.30
2023-11-10T09:21:40.522Z,1.23
2023-11-10T09:25:46.136Z,1.10
2023-11-10T09:29:51.775Z,1.17
2023-11-10T09:33:58.793Z,1.20
2023-11-10T09:38:05.496Z,1.40
2023-11-10T09:42:12.536Z,1.27
2023-11-10T09:46:21.589Z,1.10
2023-11-10T09:50:29.801Z,1.20
2023-11-10T09:54:40.784Z,1.30
2023-11-10T09:58:46.718Z,0.97
2023-11-10T10:02:52.330Z,1.50
2023-11-10T10:07:01.223Z,1.10
2023-11-10T10:11:06.991Z,1.13
2023-11-10T10:15:13.544Z,1.60
2023-11-10T10:19:28.640Z,1.20
2023-11-10T10:23:35.144Z,1.20
2023-11-10T10:27:44.798Z,1.20
2023-11-10T10:31:50.821Z,1.43
2023-11-10T10:35:56.736Z,1.20
2023-11-10T10:40:03.461Z,1.30
2023-11-10T10:44:10.960Z,1.40
2023-11-10T10:48:18.616Z,1.23
2023-11-10T10:52:24.933Z,1.50
2023-11-10T10:56:38.963Z,1.50
2023-11-10T11:00:50.634Z,1.60
2023-11-10T11:05:42.967Z,1.93
2023-11-10T11:10:08.144Z,1.07
2023-11-10T11:14:31.328Z,1.30
2023-11-10T11:19:27.501Z,1.50
2023-11-10T11:23:34.456Z,1.30
2023-11-10T11:27:40.183Z,1.37
2023-11-10T11:31:49.788Z,1.30
2023-11-10T11:36:01.276Z,1.30
2023-11-10T11:40:10.681Z,1.20
2023-11-10T11:44:36.405Z,1.27
2023-11-10T11:48:42.074Z,1.30
2023-11-10T11:52:48.085Z,1.30
2023-11-10T11:56:55.565Z,1.50
2023-11-10T12:01:01.964Z,1.57
2023-11-10T12:05:09.062Z,1.50
2023-11-10T12:09:15.096Z,1.40
2023-11-10T12:13:23.003Z,1.13
2023-11-10T12:17:28.642Z,1.30
2023-11-10T12:21:35.783Z,1.67
2023-11-10T12:25:41.785Z,1.50
2023-11-10T12:29:47.510Z,1.23
2023-11-10T12:33:58.316Z,1.20
2023-11-10T12:38:05.558Z,1.50
2023-11-10T12:42:11.761Z,1.50
2023-11-10T12:46:17.396Z,1.43
2023-11-10T12:50:25.940Z,1.23
2023-11-10T12:54:31.551Z,1.27
2023-11-10T12:58:38.362Z,1.57
2023-11-10T13:02:44.787Z,1.47
2023-11-10T13:06:51.321Z,1.40
2023-11-10T13:10:56.972Z,1.53
2023-11-10T13:15:03.747Z,1.33
2023-11-10T13:19:10.944Z,1.37
2023-11-10T13:23:16.457Z,1.40
2023-11-10T13:27:24.526Z,1.50
2023-11-10T13:31:31.709Z,1.63
2023-11-10T13:35:38.190Z,1.50
2023-11-10T13:39:44.063Z,1.73
2023-11-10T13:43:49.840Z,2.00
2023-11-10T13:47:55.669Z,1.60
2023-11-10T13:52:01.561Z,1.70
2023-11-10T13:56:08.408Z,1.77
2023-11-10T14:00:14.733Z,1.67
2023-11-10T14:04:25.892Z,1.67
2023-11-10T14:08:31.992Z,1.67
2023-11-10T14:12:37.944Z,1.93
2023-11-10T14:16:47.829Z,1.53
2023-11-10T14:20:55.275Z,1.67
2023-11-10T14:25:00.922Z,1.40
2023-11-10T14:29:08.438Z,2.07
2023-11-10T14:33:14.618Z,1.80
2023-11-10T14:37:20.695Z,1.43
2023-11-10T14:41:26.977Z,1.37
2023-11-10T14:45:33.781Z,1.47
2023-11-10T14:49:48.559Z,1.50
2023-11-10T14:53:54.239Z,1.70
2023-11-10T14:58:01.318Z,1.60
2023-11-10T15:02:10.057Z,1.60
2023-11-10T15:06:17.370Z,1.90
2023-11-10T15:10:23.293Z,1.70
2023-11-10T15:14:28.875Z,1.83
2023-11-10T15:18:34.523Z,1.77
2023-11-10T15:22:42.871Z,1.50
2023-11-10T15:26:49.405Z,1.80
2023-11-10T15:30:55.110Z,1.80
2023-11-10T15:35:02.244Z,1.60
2023-11-10T15:39:15.715Z,1.93
2023-11-10T15:43:22.177Z,2.00
2023-11-10T15:47:27.713Z,1.70
2023-11-10T15:51:41.414Z,2.00
2023-11-10T15:55:54.823Z,1.80
2023-11-10T16:00:00.368Z,1.90
2023-11-10T16:04:06.190Z,2.27
2023-11-10T16:08:12.616Z,1.70
2023-11-10T16:12:18.199Z,1.90
2023-11-10T16:16:24.917Z,1.60
2023-11-10T16:20:31.118Z,2.00
2023-11-10T16:24:37.109Z,2.50
2023-11-10T16:28:42.863Z,2.80
2023-11-10T16:32:48.457Z,2.20
2023-11-10T16:36:58.392Z,2.30
2023-11-10T16:41:04.765Z,2.20
2023-11-10T16:45:10.722Z,2.20
2023-11-10T16:49:17.862Z,2.40
2023-11-10T16:53:23.502Z,1.93
2023-11-10T16:57:31.898Z,2.00
2023-11-10T17:01:37.979Z,1.97
2023-11-10T17:05:47.609Z,2.20
2023-11-10T17:09:53.172Z,1.80
2023-11-10T17:13:58.941Z,1.70
2023-11-10T17:18:05.073Z,1.63
2023-11-10T17:22:11.011Z,1.90
2023-11-10T17:26:16.703Z,1.93
2023-11-10T17:30:23.138Z,1.90
2023-11-10T17:34:28.773Z,2.10
2023-11-10T17:38:34.330Z,2.03
2023-11-10T17:42:40.256Z,2.20
2023-11-10T17:46:45.896Z,2.00
2023-11-10T17:50:51.852Z,1.67
2023-11-10T17:54:57.510Z,1.80
2023-11-10T17:59:04.638Z,1.53
2023-11-10T18:03:10.237Z,1.53
2023-11-10T18:07:17.473Z,1.50
2023-11-10T18:11:27.165Z,1.70
2023-11-10T18:15:32.705Z,1.80
2023-11-10T18:19:38.282Z,1.30
2023-11-10T18:23:43.805Z,1.53
2023-11-10T18:27:49.394Z,1.63
2023-11-10T18:31:56.479Z,1.63
2023-11-10T18:36:04.192Z,1.67
2023-11-10T18:40:11.825Z,2.00
2023-11-10T18:44:18.354Z,1.67
2023-11-10T18:48:23.957Z,1.90
2023-11-10T18:52:30.048Z,2.03
2023-11-10T18:56:37.027Z,1.93
2023-11-10T19:00:42.780Z,1.80
2023-11-10T19:04:48.666Z,1.63
2023-11-10T19:08:54.860Z,2.10
2023-11-10T19:13:00.429Z,1.90
2023-11-10T19:17:07.999Z,2.10
2023-11-10T19:21:13.588Z,2.17
2023-11-10T19:25:19.210Z,1.40
2023-11-10T19:29:25.372Z,1.67
2023-11-10T19:33:33.798Z,1.80
2023-11-10T19:37:39.527Z,1.70
2023-11-10T19:41:45.108Z,1.70
2023-11-10T19:45:50.686Z,1.50
2023-11-10T19:49:56.242Z,1.50
2023-11-10T20:02:20.062Z,2.13
2023-11-10T20:06:25.903Z,1.60
2023-11-10T20:10:31.534Z,1.50
2023-11-10T20:14:37.638Z,1.63
2023-11-10T20:18:43.318Z,1.93
2023-11-10T20:22:48.869Z,1.67
2023-11-10T20:26:54.559Z,1.80
2023-11-10T20:31:00.277Z,2.10
2023-11-10T20:35:06.044Z,2.10
2023-11-10T20:39:13.236Z,2.00
2023-11-10T20:43:18.816Z,1.70
2023-11-10T20:47:24.329Z,1.70
2023-11-10T20:51:30.238Z,1.83
2023-11-10T20:55:39.142Z,1.67
2023-11-10T20:59:44.633Z,1.70
2023-11-10T21:03:50.425Z,2.13
2023-11-10T21:07:56.074Z,2.00
2023-11-10T21:12:01.946Z,1.80
2023-11-10T21:16:08.084Z,2.10
2023-11-10T21:20:13.590Z,1.63
2023-11-10T21:24:19.408Z,2.33
2023-11-10T21:28:25.034Z,2.30
2023-11-10T21:32:30.715Z,1.63
2023-11-10T21:36:37.888Z,1.60
2023-11-10T21:40:44.524Z,2.10
2023-11-10T21:44:50.157Z,2.10
2023-11-10T21:48:55.726Z,1.80
2023-11-10T21:53:01.354Z,1.70
2023-11-10T21:57:06.845Z,2.03
2023-11-10T22:01:17.035Z,2.10
2023-11-10T22:05:22.608Z,2.00
2023-11-10T22:09:28.722Z,1.73
2023-11-10T22:13:34.399Z,1.57
2023-11-10T22:17:40.261Z,1.77
2023-11-10T22:21:48.919Z,1.67
2023-11-10T22:25:54.377Z,1.60
2023-11-10T22:30:00.750Z,1.70
2023-11-10T22:34:06.463Z,1.93
2023-11-10T22:38:12.026Z,1.90
2023-11-10T22:42:17.532Z,1.50
2023-11-10T22:46:23.462Z,1.60
2023-11-10T22:50:31.727Z,1.50
2023-11-10T22:54:38.739Z,1.20
2023-11-10T22:58:44.330Z,1.50
2023-11-10T23:02:49.917Z,1.27
2023-11-10T23:06:55.451Z,1.40
2023-11-10T23:11:01.687Z,1.30
2023-11-10T23:15:07.795Z,1.60
2023-11-10T23:19:13.440Z,1.70
2023-11-10T23:23:19.129Z,1.70
2023-11-10T23:27:24.599Z,1.90
2023-11-10T23:31:31.263Z,1.73
2023-11-10T23:35:44.344Z,1.30
2023-11-10T23:39:53.144Z,1.73
2023-11-10T23:43:58.663Z,1.70
2023-11-10T23:48:07.077Z,1.50
2023-11-10T23:52:13.931Z,1.37
2023-11-10T23:56:19.464Z,1.50
